sensor_id;sensor_type;location;lat;lon;timestamp;temperature;humidity
14277;DHT22;7222;57.346;12.150;2023-04-03T00:01:41;0.00;1.00
14277;DHT22;7222;57.346;12.150;2023-04-03T00:04:08;0.00;1.00
14277;DHT22;7222;57.346;12.150;2023-04-03T00:06:35;-0.10;1.00
14277;DHT22;7222;57.346;12.150;2023-04-03T00:09:02;-0.10;1.00
14277;DHT22;7222;57.346;12.150;2023-04-03T00:11:31;-0.10;1.00
14277;DHT22;7222;57.346;12.150;2023-04-03T00:13:57;-0.20;1.00
14277;DHT22;7222;57.346;12.150;2023-04-03T00:16:24;-0.20;1.00
14277;DHT22;7222;57.346;12.150;2023-04-03T00:18:51;-0.20;1.00
14277;DHT22;7222;57.346;12.150;2023-04-03T00:21:18;-0.20;1.00
14277;DHT22;7222;57.346;12.150;2023-04-03T00:23:45;-0.30;1.00
14277;DHT22;7222;57.346;12.150;2023-04-03T00:26:12;-0.30;1.00
14277;DHT22;7222;57.346;12.150;2023-04-03T00:28:40;-0.30;1.00
14277;DHT22;7222;57.346;12.150;2023-04-03T00:31:07;-0.30;1.00
14277;DHT22;7222;57.346;12.150;2023-04-03T00:33:34;-0.30;14.60
14277;DHT22;7222;57.346;12.150;2023-04-03T00:36:06;-0.30;1.00
14277;DHT22;7222;57.346;12.150;2023-04-03T00:38:34;-0.40;1.00
14277;DHT22;7222;57.346;12.150;2023-04-03T00:41:01;-0.40;1.00
14277;DHT22;7222;57.346;12.150;2023-04-03T00:43:29;-0.40;14.20
14277;DHT22;7222;57.346;12.150;2023-04-03T00:45:59;-0.40;81.30
14277;DHT22;7222;57.346;12.150;2023-04-03T00:48:30;-0.40;99.90
14277;DHT22;7222;57.346;12.150;2023-04-03T00:50:58;-0.40;99.90
14277;DHT22;7222;57.346;12.150;2023-04-03T00:53:28;-0.40;99.90
14277;DHT22;7222;57.346;12.150;2023-04-03T00:55:56;-0.50;87.60
14277;DHT22;7222;57.346;12.150;2023-04-03T00:58:28;-0.40;99.90
14277;DHT22;7222;57.346;12.150;2023-04-03T01:01:05;-0.50;98.70
14277;DHT22;7222;57.346;12.150;2023-04-03T01:03:34;-0.50;99.90
14277;DHT22;7222;57.346;12.150;2023-04-03T01:06:01;-0.50;99.90
14277;DHT22;7222;57.346;12.150;2023-04-03T01:08:28;-0.50;99.90
14277;DHT22;7222;57.346;12.150;2023-04-03T01:10:55;-0.50;99.90
14277;DHT22;7222;57.346;12.150;2023-04-03T01:13:26;-0.50;99.90
14277;DHT22;7222;57.346;12.150;2023-04-03T01:15:53;-0.50;99.90
14277;DHT22;7222;57.346;12.150;2023-04-03T01:18:24;-0.60;99.90
14277;DHT22;7222;57.346;12.150;2023-04-03T01:21:23;-0.60;99.90
14277;DHT22;7222;57.346;12.150;2023-04-03T01:24:20;-0.60;99.90
14277;DHT22;7222;57.346;12.150;2023-04-03T01:26:48;-0.60;99.90
14277;DHT22;7222;57.346;12.150;2023-04-03T01:29:16;-0.70;99.90
14277;DHT22;7222;57.346;12.150;2023-04-03T01:31:50;-0.70;99.90
14277;DHT22;7222;57.346;12.150;2023-04-03T01:34:18;-0.70;99.90
14277;DHT22;7222;57.346;12.150;2023-04-03T01:36:45;-0.70;99.90
14277;DHT22;7222;57.346;12.150;2023-04-03T01:39:12;-0.70;99.90
14277;DHT22;7222;57.346;12.150;2023-04-03T01:41:39;-0.80;99.90
14277;DHT22;7222;57.346;12.150;2023-04-03T01:44:06;-0.70;99.90
14277;DHT22;7222;57.346;12.150;2023-04-03T01:46:33;-0.80;99.90
14277;DHT22;7222;57.346;12.150;2023-04-03T01:49:03;-0.80;1.00
14277;DHT22;7222;57.346;12.150;2023-04-03T01:51:31;-0.80;1.00
14277;DHT22;7222;57.346;12.150;2023-04-03T01:53:58;-0.90;99.90
14277;DHT22;7222;57.346;12.150;2023-04-03T01:56:25;-0.90;99.90
14277;DHT22;7222;57.346;12.150;2023-04-03T01:58:52;-0.90;99.90
14277;DHT22;7222;57.346;12.150;2023-04-03T02:01:19;-0.90;1.00
14277;DHT22;7222;57.346;12.150;2023-04-03T02:03:46;-0.90;99.90
14277;DHT22;7222;57.346;12.150;2023-04-03T02:06:14;-0.90;1.00
14277;DHT22;7222;57.346;12.150;2023-04-03T02:08:41;-1.00;1.00
14277;DHT22;7222;57.346;12.150;2023-04-03T02:11:08;-1.00;1.00
14277;DHT22;7222;57.346;12.150;2023-04-03T02:13:35;-1.00;1.00
14277;DHT22;7222;57.346;12.150;2023-04-03T02:16:06;-1.10;99.90
14277;DHT22;7222;57.346;12.150;2023-04-03T02:18:34;-1.10;1.00
14277;DHT22;7222;57.346;12.150;2023-04-03T02:21:00;-1.00;1.00
14277;DHT22;7222;57.346;12.150;2023-04-03T02:23:29;-1.10;1.00
14277;DHT22;7222;57.346;12.150;2023-04-03T02:26:03;-1.10;99.90
14277;DHT22;7222;57.346;12.150;2023-04-03T02:28:31;-1.10;1.00
14277;DHT22;7222;57.346;12.150;2023-04-03T02:30:58;-1.20;1.00
14277;DHT22;7222;57.346;12.150;2023-04-03T02:33:25;-1.20;1.00
14277;DHT22;7222;57.346;12.150;2023-04-03T02:35:53;-1.20;1.00
14277;DHT22;7222;57.346;12.150;2023-04-03T02:38:20;-1.20;1.00
14277;DHT22;7222;57.346;12.150;2023-04-03T02:40:49;-1.30;1.00
14277;DHT22;7222;57.346;12.150;2023-04-03T02:43:16;-1.30;1.00
14277;DHT22;7222;57.346;12.150;2023-04-03T02:45:43;-1.30;1.00
14277;DHT22;7222;57.346;12.150;2023-04-03T02:48:11;-1.30;1.00
14277;DHT22;7222;57.346;12.150;2023-04-03T02:50:37;-1.30;1.00
14277;DHT22;7222;57.346;12.150;2023-04-03T02:53:04;-1.30;1.00
14277;DHT22;7222;57.346;12.150;2023-04-03T02:55:31;-1.40;1.00
14277;DHT22;7222;57.346;12.150;2023-04-03T02:57:59;-1.40;1.00
14277;DHT22;7222;57.346;12.150;2023-04-03T03:00:26;-1.40;1.00
14277;DHT22;7222;57.346;12.150;2023-04-03T03:02:53;-1.40;1.00
14277;DHT22;7222;57.346;12.150;2023-04-03T03:05:20;-1.50;1.00
14277;DHT22;7222;57.346;12.150;2023-04-03T03:07:47;-1.50;1.00
14277;DHT22;7222;57.346;12.150;2023-04-03T03:10:15;-1.50;1.00
14277;DHT22;7222;57.346;12.150;2023-04-03T03:12:42;-1.40;1.00
14277;DHT22;7222;57.346;12.150;2023-04-03T03:15:11;-1.40;1.00
14277;DHT22;7222;57.346;12.150;2023-04-03T03:17:38;-1.40;1.00
14277;DHT22;7222;57.346;12.150;2023-04-03T03:20:06;-1.50;1.00
14277;DHT22;7222;57.346;12.150;2023-04-03T03:22:35;-1.50;1.00
14277;DHT22;7222;57.346;12.150;2023-04-03T03:25:03;-1.50;1.00
14277;DHT22;7222;57.346;12.150;2023-04-03T03:27:30;-1.50;1.00
14277;DHT22;7222;57.346;12.150;2023-04-03T03:29:57;-1.50;1.00
14277;DHT22;7222;57.346;12.150;2023-04-03T03:32:26;-1.50;1.00
14277;DHT22;7222;57.346;12.150;2023-04-03T03:34:53;-1.60;1.00
14277;DHT22;7222;57.346;12.150;2023-04-03T03:37:21;-1.60;1.00
14277;DHT22;7222;57.346;12.150;2023-04-03T03:39:47;-1.70;1.00
14277;DHT22;7222;57.346;12.150;2023-04-03T03:42:14;-1.60;1.00
14277;DHT22;7222;57.346;12.150;2023-04-03T03:44:41;-1.60;1.00
14277;DHT22;7222;57.346;12.150;2023-04-03T03:47:08;-1.60;1.00
14277;DHT22;7222;57.346;12.150;2023-04-03T03:49:37;-1.60;1.00
14277;DHT22;7222;57.346;12.150;2023-04-03T03:52:04;-1.60;1.00
14277;DHT22;7222;57.346;12.150;2023-04-03T03:54:31;-1.60;1.00
14277;DHT22;7222;57.346;12.150;2023-04-03T03:56:58;-1.70;1.00
14277;DHT22;7222;57.346;12.150;2023-04-03T03:59:25;-1.80;1.00
14277;DHT22;7222;57.346;12.150;2023-04-03T04:01:52;-1.70;1.00
14277;DHT22;7222;57.346;12.150;2023-04-03T04:04:19;-1.70;1.00
14277;DHT22;7222;57.346;12.150;2023-04-03T04:06:47;-1.80;1.00
14277;DHT22;7222;57.346;12.150;2023-04-03T04:09:14;-1.80;1.00
14277;DHT22;7222;57.346;12.150;2023-04-03T04:11:41;-1.80;1.00
14277;DHT22;7222;57.346;12.150;2023-04-03T04:14:08;-1.90;1.00
14277;DHT22;7222;57.346;12.150;2023-04-03T04:16:36;-1.90;1.00
14277;DHT22;7222;57.346;12.150;2023-04-03T04:19:02;-1.90;1.00
14277;DHT22;7222;57.346;12.150;2023-04-03T04:21:29;-1.90;1.00
14277;DHT22;7222;57.346;12.150;2023-04-03T04:23:58;-2.00;1.00
14277;DHT22;7222;57.346;12.150;2023-04-03T04:26:25;-1.90;1.00
14277;DHT22;7222;57.346;12.150;2023-04-03T04:28:52;-2.00;1.00
14277;DHT22;7222;57.346;12.150;2023-04-03T04:31:18;-2.00;1.00
14277;DHT22;7222;57.346;12.150;2023-04-03T04:33:45;-2.10;1.00
14277;DHT22;7222;57.346;12.150;2023-04-03T04:36:12;-2.10;1.00
14277;DHT22;7222;57.346;12.150;2023-04-03T04:38:40;-2.00;18.50
14277;DHT22;7222;57.346;12.150;2023-04-03T04:41:08;-2.00;1.00
14277;DHT22;7222;57.346;12.150;2023-04-03T04:43:36;-2.10;19.60
14277;DHT22;7222;57.346;12.150;2023-04-03T04:46:04;-2.10;51.40
14277;DHT22;7222;57.346;12.150;2023-04-03T04:48:31;-2.10;24.70
14277;DHT22;7222;57.346;12.150;2023-04-03T04:50:58;-2.10;92.80
14277;DHT22;7222;57.346;12.150;2023-04-03T04:53:25;-2.10;99.90
14277;DHT22;7222;57.346;12.150;2023-04-03T04:55:52;-2.10;99.90
14277;DHT22;7222;57.346;12.150;2023-04-03T04:58:20;-2.10;99.90
14277;DHT22;7222;57.346;12.150;2023-04-03T05:00:47;-2.10;99.90
14277;DHT22;7222;57.346;12.150;2023-04-03T05:03:14;-2.10;99.90
14277;DHT22;7222;57.346;12.150;2023-04-03T05:05:41;-2.00;99.90
14277;DHT22;7222;57.346;12.150;2023-04-03T05:08:09;-2.10;99.90
14277;DHT22;7222;57.346;12.150;2023-04-03T05:10:36;-2.10;99.90
14277;DHT22;7222;57.346;12.150;2023-04-03T05:13:03;-2.10;93.60
14277;DHT22;7222;57.346;12.150;2023-04-03T05:15:31;-2.00;93.50
14277;DHT22;7222;57.346;12.150;2023-04-03T05:17:58;-2.00;99.90
14277;DHT22;7222;57.346;12.150;2023-04-03T05:20:25;-1.90;94.00
14277;DHT22;7222;57.346;12.150;2023-04-03T05:22:52;-1.90;90.00
14277;DHT22;7222;57.346;12.150;2023-04-03T05:25:19;-1.70;87.60
14277;DHT22;7222;57.346;12.150;2023-04-03T05:27:45;-1.70;1.00
14277;DHT22;7222;57.346;12.150;2023-04-03T05:30:13;-1.70;1.00
14277;DHT22;7222;57.346;12.150;2023-04-03T05:32:42;-1.60;1.00
14277;DHT22;7222;57.346;12.150;2023-04-03T05:35:09;-1.70;1.00
14277;DHT22;7222;57.346;12.150;2023-04-03T05:37:37;-1.60;1.00
14277;DHT22;7222;57.346;12.150;2023-04-03T05:40:05;-1.70;1.00
14277;DHT22;7222;57.346;12.150;2023-04-03T05:42:32;-1.60;1.00
14277;DHT22;7222;57.346;12.150;2023-04-03T05:45:00;-1.60;1.00
14277;DHT22;7222;57.346;12.150;2023-04-03T05:47:27;-1.50;1.00
14277;DHT22;7222;57.346;12.150;2023-04-03T05:49:55;-1.40;1.00
14277;DHT22;7222;57.346;12.150;2023-04-03T05:52:25;-1.30;1.00
14277;DHT22;7222;57.346;12.150;2023-04-03T05:54:53;-1.20;1.00
14277;DHT22;7222;57.346;12.150;2023-04-03T05:57:20;-1.00;1.00
14277;DHT22;7222;57.346;12.150;2023-04-03T05:59:47;-0.90;1.00
14277;DHT22;7222;57.346;12.150;2023-04-03T06:02:16;-0.70;99.90
14277;DHT22;7222;57.346;12.150;2023-04-03T06:04:44;-0.60;99.90
14277;DHT22;7222;57.346;12.150;2023-04-03T06:07:15;-0.40;99.90
14277;DHT22;7222;57.346;12.150;2023-04-03T06:09:43;-0.30;99.90
14277;DHT22;7222;57.346;12.150;2023-04-03T06:12:10;-0.20;99.90
14277;DHT22;7222;57.346;12.150;2023-04-03T06:14:37;-0.20;1.00
14277;DHT22;7222;57.346;12.150;2023-04-03T06:17:04;-0.10;99.90
14277;DHT22;7222;57.346;12.150;2023-04-03T06:19:31;-0.10;1.00
14277;DHT22;7222;57.346;12.150;2023-04-03T06:21:59;0.00;99.90
14277;DHT22;7222;57.346;12.150;2023-04-03T06:24:27;-0.10;99.90
14277;DHT22;7222;57.346;12.150;2023-04-03T06:26:54;0.10;99.90
14277;DHT22;7222;57.346;12.150;2023-04-03T06:29:22;0.00;99.90
14277;DHT22;7222;57.346;12.150;2023-04-03T06:31:49;-0.10;99.90
14277;DHT22;7222;57.346;12.150;2023-04-03T06:34:17;0.00;99.90
14277;DHT22;7222;57.346;12.150;2023-04-03T06:36:44;0.20;99.90
14277;DHT22;7222;57.346;12.150;2023-04-03T06:39:14;0.20;99.90
14277;DHT22;7222;57.346;12.150;2023-04-03T06:41:43;0.40;99.90
14277;DHT22;7222;57.346;12.150;2023-04-03T06:44:10;0.40;99.90
14277;DHT22;7222;57.346;12.150;2023-04-03T06:46:39;0.70;90.20
14277;DHT22;7222;57.346;12.150;2023-04-03T06:49:06;0.90;42.00
14277;DHT22;7222;57.346;12.150;2023-04-03T06:51:34;1.00;16.90
14277;DHT22;7222;57.346;12.150;2023-04-03T06:54:04;0.90;23.00
14277;DHT22;7222;57.346;12.150;2023-04-03T06:56:31;1.00;1.00
14277;DHT22;7222;57.346;12.150;2023-04-03T06:58:59;1.00;1.00
14277;DHT22;7222;57.346;12.150;2023-04-03T07:01:28;1.00;1.00
14277;DHT22;7222;57.346;12.150;2023-04-03T07:03:56;0.80;1.00
14277;DHT22;7222;57.346;12.150;2023-04-03T07:06:23;0.90;3.10
14277;DHT22;7222;57.346;12.150;2023-04-03T07:08:52;1.10;1.00
14277;DHT22;7222;57.346;12.150;2023-04-03T07:11:19;1.30;1.00
14277;DHT22;7222;57.346;12.150;2023-04-03T07:13:46;1.10;1.00
14277;DHT22;7222;57.346;12.150;2023-04-03T07:16:15;1.10;4.40
14277;DHT22;7222;57.346;12.150;2023-04-03T07:18:42;1.40;1.00
14277;DHT22;7222;57.346;12.150;2023-04-03T07:21:09;1.40;1.00
14277;DHT22;7222;57.346;12.150;2023-04-03T07:23:36;1.50;1.00
14277;DHT22;7222;57.346;12.150;2023-04-03T07:26:03;1.80;1.00
14277;DHT22;7222;57.346;12.150;2023-04-03T07:28:31;2.00;1.00
14277;DHT22;7222;57.346;12.150;2023-04-03T07:31:01;2.00;1.00
14277;DHT22;7222;57.346;12.150;2023-04-03T07:33:30;2.20;1.00
14277;DHT22;7222;57.346;12.150;2023-04-03T07:35:57;2.30;1.00
14277;DHT22;7222;57.346;12.150;2023-04-03T07:38:25;2.60;1.00
14277;DHT22;7222;57.346;12.150;2023-04-03T07:40:52;2.80;1.00
14277;DHT22;7222;57.346;12.150;2023-04-03T07:43:20;2.80;1.00
14277;DHT22;7222;57.346;12.150;2023-04-03T07:45:50;3.00;1.00
14277;DHT22;7222;57.346;12.150;2023-04-03T07:48:18;3.10;1.00
14277;DHT22;7222;57.346;12.150;2023-04-03T07:50:46;3.20;1.00
14277;DHT22;7222;57.346;12.150;2023-04-03T07:53:13;3.40;1.00
14277;DHT22;7222;57.346;12.150;2023-04-03T07:55:40;3.60;1.00
14277;DHT22;7222;57.346;12.150;2023-04-03T07:58:09;3.60;1.00
14277;DHT22;7222;57.346;12.150;2023-04-03T08:00:37;3.90;1.00
14277;DHT22;7222;57.346;12.150;2023-04-03T08:03:05;4.10;1.00
14277;DHT22;7222;57.346;12.150;2023-04-03T08:05:36;4.30;1.00
14277;DHT22;7222;57.346;12.150;2023-04-03T08:08:05;4.50;1.00
14277;DHT22;7222;57.346;12.150;2023-04-03T08:10:32;4.70;1.00
14277;DHT22;7222;57.346;12.150;2023-04-03T08:12:59;4.90;1.00
14277;DHT22;7222;57.346;12.150;2023-04-03T08:15:26;5.10;1.00
14277;DHT22;7222;57.346;12.150;2023-04-03T08:17:54;5.30;1.00
14277;DHT22;7222;57.346;12.150;2023-04-03T08:20:22;5.40;1.00
14277;DHT22;7222;57.346;12.150;2023-04-03T08:22:49;5.70;1.00
14277;DHT22;7222;57.346;12.150;2023-04-03T08:25:17;6.00;1.00
14277;DHT22;7222;57.346;12.150;2023-04-03T08:27:44;5.90;1.00
14277;DHT22;7222;57.346;12.150;2023-04-03T08:30:12;6.10;1.00
14277;DHT22;7222;57.346;12.150;2023-04-03T08:32:39;6.30;1.00
14277;DHT22;7222;57.346;12.150;2023-04-03T08:35:07;6.50;1.00
14277;DHT22;7222;57.346;12.150;2023-04-03T08:37:35;6.50;1.00
14277;DHT22;7222;57.346;12.150;2023-04-03T08:40:03;7.10;1.00
14277;DHT22;7222;57.346;12.150;2023-04-03T08:42:40;7.10;1.00
14277;DHT22;7222;57.346;12.150;2023-04-03T08:45:12;7.00;1.00
14277;DHT22;7222;57.346;12.150;2023-04-03T08:47:46;7.40;1.00
14277;DHT22;7222;57.346;12.150;2023-04-03T08:50:17;7.70;1.00
14277;DHT22;7222;57.346;12.150;2023-04-03T08:52:47;8.20;1.00
14277;DHT22;7222;57.346;12.150;2023-04-03T08:55:22;8.00;1.00
14277;DHT22;7222;57.346;12.150;2023-04-03T08:57:58;7.40;1.00
14277;DHT22;7222;57.346;12.150;2023-04-03T09:00:29;8.40;1.00
14277;DHT22;7222;57.346;12.150;2023-04-03T09:02:58;8.80;1.00
14277;DHT22;7222;57.346;12.150;2023-04-03T09:05:33;8.80;1.00
14277;DHT22;7222;57.346;12.150;2023-04-03T09:08:07;9.40;1.00
14277;DHT22;7222;57.346;12.150;2023-04-03T09:10:38;9.40;1.00
14277;DHT22;7222;57.346;12.150;2023-04-03T09:13:13;9.50;1.00
14277;DHT22;7222;57.346;12.150;2023-04-03T09:15:44;9.40;1.00
14277;DHT22;7222;57.346;12.150;2023-04-03T09:18:16;9.90;1.00
14277;DHT22;7222;57.346;12.150;2023-04-03T09:20:48;10.10;1.00
14277;DHT22;7222;57.346;12.150;2023-04-03T09:23:22;10.80;1.00
14277;DHT22;7222;57.346;12.150;2023-04-03T09:25:54;10.90;1.00
14277;DHT22;7222;57.346;12.150;2023-04-03T09:28:24;10.60;1.00
14277;DHT22;7222;57.346;12.150;2023-04-03T09:30:51;10.00;1.00
14277;DHT22;7222;57.346;12.150;2023-04-03T09:33:18;10.70;1.00
14277;DHT22;7222;57.346;12.150;2023-04-03T09:35:47;9.70;1.00
14277;DHT22;7222;57.346;12.150;2023-04-03T09:38:20;9.80;1.00
14277;DHT22;7222;57.346;12.150;2023-04-03T09:40:48;8.20;1.00
14277;DHT22;7222;57.346;12.150;2023-04-03T09:43:29;8.30;1.00
14277;DHT22;7222;57.346;12.150;2023-04-03T09:46:16;8.80;1.00
14277;DHT22;7222;57.346;12.150;2023-04-03T09:48:50;9.10;1.00
14277;DHT22;7222;57.346;12.150;2023-04-03T09:51:17;11.70;1.00
14277;DHT22;7222;57.346;12.150;2023-04-03T09:53:44;12.40;1.00
14277;DHT22;7222;57.346;12.150;2023-04-03T09:56:20;12.50;1.00
14277;DHT22;7222;57.346;12.150;2023-04-03T09:58:51;12.30;1.00
14277;DHT22;7222;57.346;12.150;2023-04-03T10:01:25;12.90;1.00
14277;DHT22;7222;57.346;12.150;2023-04-03T10:04:08;13.80;1.00
14277;DHT22;7222;57.346;12.150;2023-04-03T10:06:38;13.80;1.00
14277;DHT22;7222;57.346;12.150;2023-04-03T10:09:18;13.70;1.00
14277;DHT22;7222;57.346;12.150;2023-04-03T10:12:01;14.20;1.00
14277;DHT22;7222;57.346;12.150;2023-04-03T10:14:33;14.20;1.00
14277;DHT22;7222;57.346;12.150;2023-04-03T10:17:09;14.40;1.00
14277;DHT22;7222;57.346;12.150;2023-04-03T10:19:42;14.60;1.00
14277;DHT22;7222;57.346;12.150;2023-04-03T10:22:18;14.90;1.00
14277;DHT22;7222;57.346;12.150;2023-04-03T10:24:52;15.20;1.00
14277;DHT22;7222;57.346;12.150;2023-04-03T10:27:26;15.60;1.00
14277;DHT22;7222;57.346;12.150;2023-04-03T10:30:04;15.60;1.00
14277;DHT22;7222;57.346;12.150;2023-04-03T10:32:54;15.30;1.00
14277;DHT22;7222;57.346;12.150;2023-04-03T10:35:37;15.70;1.00
14277;DHT22;7222;57.346;12.150;2023-04-03T10:38:12;16.10;1.00
14277;DHT22;7222;57.346;12.150;2023-04-03T10:40:48;16.30;1.00
14277;DHT22;7222;57.346;12.150;2023-04-03T10:43:28;14.90;1.00
14277;DHT22;7222;57.346;12.150;2023-04-03T10:46:04;16.00;1.00
14277;DHT22;7222;57.346;12.150;2023-04-03T10:48:43;16.50;1.00
14277;DHT22;7222;57.346;12.150;2023-04-03T10:51:23;16.10;1.00
14277;DHT22;7222;57.346;12.150;2023-04-03T10:53:56;14.60;1.00
14277;DHT22;7222;57.346;12.150;2023-04-03T10:56:30;15.90;1.00
14277;DHT22;7222;57.346;12.150;2023-04-03T10:59:05;16.50;1.00
14277;DHT22;7222;57.346;12.150;2023-04-03T11:01:38;15.60;1.00
14277;DHT22;7222;57.346;12.150;2023-04-03T11:04:09;16.50;1.00
14277;DHT22;7222;57.346;12.150;2023-04-03T11:06:41;16.50;1.00
14277;DHT22;7222;57.346;12.150;2023-04-03T11:09:18;16.70;1.00
14277;DHT22;7222;57.346;12.150;2023-04-03T11:11:47;17.10;1.00
14277;DHT22;7222;57.346;12.150;2023-04-03T11:14:21;17.60;1.00
14277;DHT22;7222;57.346;12.150;2023-04-03T11:17:01;17.00;1.00
14277;DHT22;7222;57.346;12.150;2023-04-03T11:19:35;15.50;1.00
14277;DHT22;7222;57.346;12.150;2023-04-03T11:22:13;12.90;1.00
14277;DHT22;7222;57.346;12.150;2023-04-03T11:27:49;14.40;1.00
14277;DHT22;7222;57.346;12.150;2023-04-03T11:30:20;15.30;1.00
14277;DHT22;7222;57.346;12.150;2023-04-03T11:35:55;12.00;1.00
14277;DHT22;7222;57.346;12.150;2023-04-03T11:38:27;13.20;1.00
14277;DHT22;7222;57.346;12.150;2023-04-03T11:40:57;13.70;1.00
14277;DHT22;7222;57.346;12.150;2023-04-03T11:43:26;12.80;1.00
14277;DHT22;7222;57.346;12.150;2023-04-03T11:46:08;12.90;1.00
14277;DHT22;7222;57.346;12.150;2023-04-03T11:48:52;14.60;1.00
14277;DHT22;7222;57.346;12.150;2023-04-03T11:51:48;15.60;1.00
14277;DHT22;7222;57.346;12.150;2023-04-03T11:54:36;11.70;1.00
14277;DHT22;7222;57.346;12.150;2023-04-03T12:12:37;14.20;1.00
14277;DHT22;7222;57.346;12.150;2023-04-03T12:15:44;13.10;1.00
14277;DHT22;7222;57.346;12.150;2023-04-03T12:18:42;12.20;1.00
14277;DHT22;7222;57.346;12.150;2023-04-03T12:21:10;13.50;1.00
14277;DHT22;7222;57.346;12.150;2023-04-03T12:23:57;12.90;1.00
14277;DHT22;7222;57.346;12.150;2023-04-03T12:26:30;14.10;1.00
14277;DHT22;7222;57.346;12.150;2023-04-03T12:28:58;12.40;1.00
14277;DHT22;7222;57.346;12.150;2023-04-03T12:31:50;12.30;1.00
14277;DHT22;7222;57.346;12.150;2023-04-03T12:34:43;12.80;1.00
14277;DHT22;7222;57.346;12.150;2023-04-03T12:37:24;13.30;1.00
14277;DHT22;7222;57.346;12.150;2023-04-03T12:40:05;15.00;1.00
14277;DHT22;7222;57.346;12.150;2023-04-03T12:45:43;15.40;1.00
14277;DHT22;7222;57.346;12.150;2023-04-03T12:48:15;16.20;1.00
14277;DHT22;7222;57.346;12.150;2023-04-03T12:50:45;16.70;1.00
14277;DHT22;7222;57.346;12.150;2023-04-03T12:53:16;15.70;1.00
14277;DHT22;7222;57.346;12.150;2023-04-03T12:55:46;16.00;1.00
14277;DHT22;7222;57.346;12.150;2023-04-03T12:58:17;14.00;1.00
14277;DHT22;7222;57.346;12.150;2023-04-03T13:01:02;15.30;1.00
14277;DHT22;7222;57.346;12.150;2023-04-03T13:03:31;15.80;1.00
14277;DHT22;7222;57.346;12.150;2023-04-03T13:06:01;15.70;1.00
14277;DHT22;7222;57.346;12.150;2023-04-03T13:08:29;16.30;1.00
14277;DHT22;7222;57.346;12.150;2023-04-03T13:11:17;13.70;1.00
14277;DHT22;7222;57.346;12.150;2023-04-03T13:14:22;13.40;1.00
14277;DHT22;7222;57.346;12.150;2023-04-03T13:16:56;12.30;1.00
14277;DHT22;7222;57.346;12.150;2023-04-03T13:19:25;12.50;1.00
14277;DHT22;7222;57.346;12.150;2023-04-03T13:21:56;13.20;1.00
14277;DHT22;7222;57.346;12.150;2023-04-03T13:24:24;11.80;1.00
14277;DHT22;7222;57.346;12.150;2023-04-03T13:26:52;12.90;1.00
14277;DHT22;7222;57.346;12.150;2023-04-03T13:29:30;12.70;1.00
14277;DHT22;7222;57.346;12.150;2023-04-03T13:32:00;13.00;1.00
14277;DHT22;7222;57.346;12.150;2023-04-03T13:34:36;13.30;1.00
14277;DHT22;7222;57.346;12.150;2023-04-03T13:37:04;14.80;1.00
14277;DHT22;7222;57.346;12.150;2023-04-03T13:39:34;14.90;1.00
14277;DHT22;7222;57.346;12.150;2023-04-03T13:42:15;15.30;1.00
14277;DHT22;7222;57.346;12.150;2023-04-03T13:44:46;15.80;1.00
14277;DHT22;7222;57.346;12.150;2023-04-03T13:47:17;13.50;1.00
14277;DHT22;7222;57.346;12.150;2023-04-03T13:49:59;15.00;1.00
14277;DHT22;7222;57.346;12.150;2023-04-03T13:52:41;15.80;1.00
14277;DHT22;7222;57.346;12.150;2023-04-03T13:55:18;15.50;1.00
14277;DHT22;7222;57.346;12.150;2023-04-03T13:57:50;16.00;1.00
14277;DHT22;7222;57.346;12.150;2023-04-03T14:00:39;16.60;1.00
14277;DHT22;7222;57.346;12.150;2023-04-03T14:03:29;16.50;1.00
14277;DHT22;7222;57.346;12.150;2023-04-03T14:05:58;16.10;1.00
14277;DHT22;7222;57.346;12.150;2023-04-03T14:08:26;16.20;1.00
14277;DHT22;7222;57.346;12.150;2023-04-03T14:11:02;16.30;1.00
14277;DHT22;7222;57.346;12.150;2023-04-03T14:13:31;14.80;1.00
14277;DHT22;7222;57.346;12.150;2023-04-03T14:15:59;14.50;1.00
14277;DHT22;7222;57.346;12.150;2023-04-03T14:18:27;16.10;1.00
14277;DHT22;7222;57.346;12.150;2023-04-03T14:20:54;15.80;1.00
14277;DHT22;7222;57.346;12.150;2023-04-03T14:23:23;16.30;1.00
14277;DHT22;7222;57.346;12.150;2023-04-03T14:25:50;16.50;1.00
14277;DHT22;7222;57.346;12.150;2023-04-03T14:28:19;16.30;1.00
14277;DHT22;7222;57.346;12.150;2023-04-03T14:30:48;14.70;1.00
14277;DHT22;7222;57.346;12.150;2023-04-03T14:33:22;14.60;1.00
14277;DHT22;7222;57.346;12.150;2023-04-03T14:35:50;15.70;1.00
14277;DHT22;7222;57.346;12.150;2023-04-03T14:38:24;14.80;1.00
14277;DHT22;7222;57.346;12.150;2023-04-03T14:40:52;15.30;1.00
14277;DHT22;7222;57.346;12.150;2023-04-03T14:43:19;15.00;1.00
14277;DHT22;7222;57.346;12.150;2023-04-03T14:48:30;15.20;1.00
14277;DHT22;7222;57.346;12.150;2023-04-03T14:50:57;14.10;1.00
14277;DHT22;7222;57.346;12.150;2023-04-03T14:53:25;14.50;1.00
14277;DHT22;7222;57.346;12.150;2023-04-03T14:55:55;14.50;1.00
14277;DHT22;7222;57.346;12.150;2023-04-03T14:58:22;15.10;1.00
14277;DHT22;7222;57.346;12.150;2023-04-03T15:00:49;15.70;1.00
14277;DHT22;7222;57.346;12.150;2023-04-03T15:03:18;15.40;1.00
14277;DHT22;7222;57.346;12.150;2023-04-03T15:05:48;15.50;1.00
14277;DHT22;7222;57.346;12.150;2023-04-03T15:08:19;15.70;1.00
14277;DHT22;7222;57.346;12.150;2023-04-03T15:10:58;15.90;1.00
14277;DHT22;7222;57.346;12.150;2023-04-03T15:13:26;16.20;1.00
14277;DHT22;7222;57.346;12.150;2023-04-03T15:15:54;15.50;1.00
14277;DHT22;7222;57.346;12.150;2023-04-03T15:21:05;15.30;1.00
14277;DHT22;7222;57.346;12.150;2023-04-03T15:23:33;13.70;1.00
14277;DHT22;7222;57.346;12.150;2023-04-03T15:26:00;13.70;1.00
14277;DHT22;7222;57.346;12.150;2023-04-03T15:28:30;14.20;1.00
14277;DHT22;7222;57.346;12.150;2023-04-03T15:30:57;14.90;1.00
14277;DHT22;7222;57.346;12.150;2023-04-03T15:33:26;15.10;1.00
14277;DHT22;7222;57.346;12.150;2023-04-03T15:35:53;13.90;1.00
14277;DHT22;7222;57.346;12.150;2023-04-03T15:38:22;13.80;1.00
14277;DHT22;7222;57.346;12.150;2023-04-03T15:40:49;12.70;1.00
14277;DHT22;7222;57.346;12.150;2023-04-03T15:43:16;12.70;1.00
14277;DHT22;7222;57.346;12.150;2023-04-03T15:45:44;13.20;1.00
14277;DHT22;7222;57.346;12.150;2023-04-03T15:48:12;14.20;1.00
14277;DHT22;7222;57.346;12.150;2023-04-03T15:50:39;14.60;1.00
14277;DHT22;7222;57.346;12.150;2023-04-03T15:53:06;14.20;1.00
14277;DHT22;7222;57.346;12.150;2023-04-03T15:55:36;14.00;1.00
14277;DHT22;7222;57.346;12.150;2023-04-03T15:58:04;13.80;1.00
14277;DHT22;7222;57.346;12.150;2023-04-03T16:00:31;12.60;1.00
14277;DHT22;7222;57.346;12.150;2023-04-03T16:03:00;12.60;1.00
14277;DHT22;7222;57.346;12.150;2023-04-03T16:05:29;12.70;1.00
14277;DHT22;7222;57.346;12.150;2023-04-03T16:07:57;12.10;1.00
14277;DHT22;7222;57.346;12.150;2023-04-03T16:10:24;12.00;1.00
14277;DHT22;7222;57.346;12.150;2023-04-03T16:12:53;13.20;1.00
14277;DHT22;7222;57.346;12.150;2023-04-03T16:15:20;12.90;1.00
14277;DHT22;7222;57.346;12.150;2023-04-03T16:17:47;12.20;1.00
14277;DHT22;7222;57.346;12.150;2023-04-03T16:20:15;12.90;1.00
14277;DHT22;7222;57.346;12.150;2023-04-03T16:22:42;11.70;1.00
14277;DHT22;7222;57.346;12.150;2023-04-03T16:25:10;11.50;1.00
14277;DHT22;7222;57.346;12.150;2023-04-03T16:27:38;11.50;1.00
14277;DHT22;7222;57.346;12.150;2023-04-03T16:30:08;11.70;1.00
14277;DHT22;7222;57.346;12.150;2023-04-03T16:32:36;12.20;1.00
14277;DHT22;7222;57.346;12.150;2023-04-03T16:35:05;11.70;1.00
14277;DHT22;7222;57.346;12.150;2023-04-03T16:37:33;11.70;1.00